Time;durP1;ratioP1;P1;durP2;ratioP2;P2;SDS_P1;SDS_P2;PMS_P1;PMS_P2;Temp;Humidity;BMP_temperature;BMP_pressure;BME280_temperature;BME280_humidity;BME280_pressure;Samples;Min_cycle;Max_cycle;Signal;HPM_P1;HPM_P2
2022/01/28 00:01:40;;;;;;;;;;;-1.80;99.90;;;;;;4157458;28;19959;-57
2022/01/28 00:03:41;;;;;;;;;;;-1.70;99.90;;;;;;4158406;28;19983;-62
2022/01/28 00:05:42;;;;;;;;;;;-1.70;99.90;;;;;;4139048;28;19917;-63
2022/01/28 00:07:43;;;;;;;;;;;-1.70;99.90;;;;;;4158339;28;20337;-58
2022/01/28 00:09:44;;;;;;;;;;;-1.60;99.90;;;;;;4156708;28;20278;-63
2022/01/28 00:11:45;;;;;;;;;;;-1.60;99.90;;;;;;4157597;28;19947;-63
2022/01/28 00:13:52;;;;;;;;;;;-1.60;99.90;;;;;;4156769;28;19920;-62
2022/01/28 00:38:44;;;;;;;;;;;-1.60;99.90;;;;;;4157916;28;20316;-61
2022/01/28 00:40:45;;;;;;;;;;;-1.60;99.90;;;;;;4156358;28;19913;-61
2022/01/28 00:42:46;;;;;;;;;;;-1.60;99.90;;;;;;4157469;28;19913;-59
2022/01/28 00:44:47;;;;;;;;;;;-1.60;99.90;;;;;;4156919;28;19920;-62
2022/01/28 00:46:48;;;;;;;;;;;-1.60;99.90;;;;;;4157677;28;19913;-64
2022/01/28 00:48:48;;;;;;;;;;;-1.50;99.90;;;;;;4156625;28;19964;-59
2022/01/28 00:50:49;;;;;;;;;;;-1.50;99.90;;;;;;4157458;28;19917;-62
2022/01/28 00:52:50;;;;;;;;;;;-1.50;99.90;;;;;;4156713;28;20263;-53
2022/01/28 00:54:51;;;;;;;;;;;-1.50;99.90;;;;;;4157835;28;19964;-57
2022/01/28 00:56:52;;;;;;;;;;;-1.50;99.90;;;;;;4156654;28;19924;-55
2022/01/28 00:58:53;;;;;;;;;;;-1.50;99.90;;;;;;4156907;28;20366;-63
2022/01/28 01:00:54;;;;;;;;;;;-1.50;99.90;;;;;;4158932;28;19921;-60
2022/01/28 01:02:55;;;;;;;;;;;-1.50;99.90;;;;;;4159532;28;19924;-60
2022/01/28 01:04:56;;;;;;;;;;;-1.50;99.90;;;;;;4160681;28;19909;-65
2022/01/28 01:06:57;;;;;;;;;;;-1.50;99.90;;;;;;4159448;28;19913;-60
2022/01/28 01:08:58;;;;;;;;;;;-1.60;99.90;;;;;;4160849;28;19975;-62
2022/01/28 01:10:59;;;;;;;;;;;-1.60;99.90;;;;;;4159764;28;19913;-59
2022/01/28 01:13:00;;;;;;;;;;;-1.60;99.90;;;;;;4161031;28;20446;-57
2022/01/28 01:15:02;;;;;;;;;;;-1.60;99.90;;;;;;4158859;28;19971;-56
2022/01/28 01:19:21;;;;;;;;;;;-1.70;99.90;;;;;;4159468;28;20707;-62
2022/01/28 01:21:26;;;;;;;;;;;-1.80;99.90;;;;;;4161465;28;19967;-60
2022/01/28 01:23:36;;;;;;;;;;;-1.80;99.90;;;;;;4159276;28;19913;-58
2022/01/28 01:28:03;;;;;;;;;;;-1.70;99.90;;;;;;4159330;28;19925;-57
2022/01/28 01:30:04;;;;;;;;;;;-1.70;99.90;;;;;;4160353;28;19913;-58
2022/01/28 01:32:12;;;;;;;;;;;-1.70;99.90;;;;;;4157648;28;19909;-59
2022/01/28 01:34:20;;;;;;;;;;;-1.70;99.90;;;;;;4160285;28;19951;-62
2022/01/28 01:36:21;;;;;;;;;;;-1.60;99.90;;;;;;4159264;28;19939;-61
2022/01/28 01:38:25;;;;;;;;;;;-1.60;99.90;;;;;;4160495;28;19913;-61
2022/01/28 01:40:33;;;;;;;;;;;-1.60;99.90;;;;;;4159533;28;19913;-57
2022/01/28 01:42:49;;;;;;;;;;;-1.50;99.90;;;;;;4160413;28;19971;-60
2022/01/28 01:53:51;;;;;;;;;;;-1.60;99.90;;;;;;4158869;28;20091;-60
2022/01/28 01:55:52;;;;;;;;;;;-1.60;99.90;;;;;;4159477;28;20016;-61
2022/01/28 01:57:53;;;;;;;;;;;-1.70;99.90;;;;;;4158122;28;19917;-56
2022/01/28 01:59:54;;;;;;;;;;;-1.70;99.90;;;;;;4159437;28;20456;-58
2022/01/28 02:01:56;;;;;;;;;;;-1.70;99.90;;;;;;4158513;28;20430;-55
2022/01/28 02:03:57;;;;;;;;;;;-1.70;99.90;;;;;;4159931;28;19913;-57
2022/01/28 02:05:59;;;;;;;;;;;-1.80;99.90;;;;;;4158300;28;20546;-58
2022/01/28 02:08:05;;;;;;;;;;;-1.80;99.90;;;;;;4159276;28;20415;-58
2022/01/28 02:10:07;;;;;;;;;;;-1.70;99.90;;;;;;4158958;28;19980;-54
2022/01/28 02:12:08;;;;;;;;;;;-1.70;99.90;;;;;;4158652;28;19920;-61
2022/01/28 02:14:09;;;;;;;;;;;-1.80;99.90;;;;;;4159001;28;19973;-60
2022/01/28 02:16:10;;;;;;;;;;;-1.80;99.90;;;;;;4158248;28;20600;-56
2022/01/28 02:18:11;;;;;;;;;;;-1.80;99.90;;;;;;4155945;28;20219;-60
2022/01/28 02:20:21;;;;;;;;;;;-1.80;99.90;;;;;;4142187;28;19917;-55
2022/01/28 02:22:23;;;;;;;;;;;-1.80;99.90;;;;;;4143579;28;19918;-59
2022/01/28 02:24:31;;;;;;;;;;;-1.80;99.90;;;;;;4142301;28;19914;-61
2022/01/28 02:26:32;;;;;;;;;;;-1.80;99.90;;;;;;4143793;28;19960;-64
2022/01/28 02:28:37;;;;;;;;;;;-1.70;99.90;;;;;;4141827;28;19922;-62
2022/01/28 02:30:38;;;;;;;;;;;-1.70;99.90;;;;;;4151972;28;19917;-63
2022/01/28 02:32:39;;;;;;;;;;;-1.70;99.90;;;;;;4158507;28;19913;-61
2022/01/28 02:34:41;;;;;;;;;;;-1.70;99.90;;;;;;4159629;28;20419;-59
2022/01/28 02:36:41;;;;;;;;;;;-1.70;99.90;;;;;;4157774;28;20328;-62
2022/01/28 02:38:42;;;;;;;;;;;-1.70;99.90;;;;;;4159299;28;19917;-62
2022/01/28 02:40:52;;;;;;;;;;;-1.70;99.90;;;;;;4158075;28;19958;-59
2022/01/28 02:43:01;;;;;;;;;;;-1.70;99.90;;;;;;4157530;28;19963;-60
2022/01/28 02:45:03;;;;;;;;;;;-1.70;99.90;;;;;;4157011;28;20351;-64
2022/01/28 02:47:05;;;;;;;;;;;-1.70;99.90;;;;;;4158986;28;20701;-62
2022/01/28 02:49:09;;;;;;;;;;;-1.70;99.90;;;;;;4157674;28;20258;-63
2022/01/28 02:51:17;;;;;;;;;;;-1.70;99.90;;;;;;4158783;28;19955;-64
2022/01/28 02:53:26;;;;;;;;;;;-1.70;99.90;;;;;;4158090;28;19975;-59
2022/01/28 02:55:29;;;;;;;;;;;-1.70;99.90;;;;;;4159101;28;19913;-64
2022/01/28 02:57:32;;;;;;;;;;;-1.70;99.90;;;;;;4158170;28;19913;-62
2022/01/28 02:59:33;;;;;;;;;;;-1.80;99.90;;;;;;4157629;28;20014;-61
2022/01/28 03:01:34;;;;;;;;;;;-1.80;99.90;;;;;;4158740;28;19913;-62
2022/01/28 03:03:35;;;;;;;;;;;-1.80;99.90;;;;;;4157472;28;19909;-59
2022/01/28 03:05:36;;;;;;;;;;;-1.90;99.90;;;;;;4158412;28;20732;-61
2022/01/28 03:07:36;;;;;;;;;;;-1.90;99.90;;;;;;4157906;28;20032;-59
2022/01/28 03:09:51;;;;;;;;;;;-1.90;99.90;;;;;;4159232;28;19971;-63
2022/01/28 03:12:11;;;;;;;;;;;-1.90;99.90;;;;;;4157192;28;19936;-64
2022/01/28 03:14:35;;;;;;;;;;;-2.00;99.90;;;;;;4159126;28;19979;-62
2022/01/28 03:16:40;;;;;;;;;;;-2.00;99.90;;;;;;4157664;28;20332;-61
2022/01/28 03:19:00;;;;;;;;;;;-1.90;99.90;;;;;;4158089;28;19947;-61
2022/01/28 03:21:18;;;;;;;;;;;-1.90;99.90;;;;;;4157617;28;20420;-62
2022/01/28 03:23:19;;;;;;;;;;;-1.90;99.90;;;;;;4158004;28;19999;-60
2022/01/28 03:25:19;;;;;;;;;;;-1.90;99.90;;;;;;4157442;28;19920;-63
2022/01/28 03:27:47;;;;;;;;;;;-1.80;99.90;;;;;;4157671;28;19925;-61
2022/01/28 03:29:47;;;;;;;;;;;-1.80;99.90;;;;;;4157179;28;19952;-62
2022/01/28 03:31:48;;;;;;;;;;;-1.80;99.90;;;;;;4157690;28;19913;-56
2022/01/28 03:33:49;;;;;;;;;;;-1.80;99.90;;;;;;4157746;28;20799;-60
2022/01/28 03:35:50;;;;;;;;;;;-1.80;99.90;;;;;;4158567;28;20304;-62
2022/01/28 03:37:59;;;;;;;;;;;-1.80;99.90;;;;;;4156692;28;19913;-54
2022/01/28 03:40:01;;;;;;;;;;;-1.80;99.90;;;;;;4158366;28;20377;-63
2022/01/28 03:42:03;;;;;;;;;;;-1.70;99.90;;;;;;4156739;28;20412;-63
2022/01/28 03:44:05;;;;;;;;;;;-1.70;99.90;;;;;;4158030;28;19917;-60
2022/01/28 03:46:06;;;;;;;;;;;-1.70;99.90;;;;;;4157481;28;20340;-60
2022/01/28 03:48:07;;;;;;;;;;;-1.70;99.90;;;;;;4157568;28;19943;-62
2022/01/28 03:50:08;;;;;;;;;;;-1.60;99.90;;;;;;4157052;28;20389;-61
2022/01/28 03:52:09;;;;;;;;;;;-1.60;99.90;;;;;;4159057;28;19913;-62
2022/01/28 03:54:10;;;;;;;;;;;-1.60;99.90;;;;;;4157059;28;19968;-56
2022/01/28 03:56:10;;;;;;;;;;;-1.60;99.90;;;;;;4157599;28;19928;-62
2022/01/28 03:58:12;;;;;;;;;;;-1.60;99.90;;;;;;4157275;28;19917;-57
2022/01/28 04:00:13;;;;;;;;;;;-1.60;99.90;;;;;;4157164;28;19963;-59
2022/01/28 04:02:19;;;;;;;;;;;-1.60;99.90;;;;;;4157750;28;19955;-62
2022/01/28 04:11:29;;;;;;;;;;;-1.60;99.90;;;;;;4157476;28;19970;-54
2022/01/28 04:13:30;;;;;;;;;;;-1.60;99.90;;;;;;4157601;28;19917;-62
2022/01/28 04:15:47;;;;;;;;;;;-1.60;99.90;;;;;;4157369;28;19987;-62
2022/01/28 04:17:51;;;;;;;;;;;-1.70;99.90;;;;;;4156699;28;19952;-57
2022/01/28 04:19:52;;;;;;;;;;;-1.70;99.90;;;;;;4141169;28;19913;-59
2022/01/28 04:21:53;;;;;;;;;;;-1.70;99.90;;;;;;4141559;28;19909;-55
2022/01/28 04:23:54;;;;;;;;;;;-1.70;99.90;;;;;;4147797;28;19971;-55
2022/01/28 04:25:54;;;;;;;;;;;-1.80;99.90;;;;;;4157014;28;20290;-64
2022/01/28 04:27:55;;;;;;;;;;;-1.80;99.90;;;;;;4157606;28;19909;-55
2022/01/28 04:29:56;;;;;;;;;;;-1.80;99.90;;;;;;4156601;28;19921;-59
2022/01/28 04:31:57;;;;;;;;;;;-1.80;99.90;;;;;;4157719;28;19909;-57
2022/01/28 04:34:00;;;;;;;;;;;-1.90;99.90;;;;;;4156952;28;19959;-63
2022/01/28 04:36:01;;;;;;;;;;;-1.90;99.90;;;;;;4160802;28;19984;-57
2022/01/28 04:38:27;;;;;;;;;;;-1.90;99.90;;;;;;4158502;28;19914;-53
2022/01/28 04:40:30;;;;;;;;;;;-1.90;99.90;;;;;;4160622;28;19967;-60
2022/01/28 04:46:58;;;;;;;;;;;-1.90;99.90;;;;;;4159702;28;20711;-60
2022/01/28 04:49:07;;;;;;;;;;;-1.90;99.90;;;;;;4161237;28;19955;-59
2022/01/28 04:51:28;;;;;;;;;;;-2.00;99.90;;;;;;4159348;28;19956;-55
2022/01/28 04:53:41;;;;;;;;;;;-2.00;99.90;;;;;;4160503;28;19967;-58
2022/01/28 05:26:40;;;;;;;;;;;-1.60;99.90;;;;;;4159655;28;20288;-58
2022/01/28 05:28:42;;;;;;;;;;;-1.60;99.90;;;;;;4159522;28;19967;-57
2022/01/28 05:30:43;;;;;;;;;;;-1.60;99.90;;;;;;4158687;28;19928;-61
2022/01/28 05:32:44;;;;;;;;;;;-1.60;99.90;;;;;;4160165;28;19913;-57
2022/01/28 05:34:45;;;;;;;;;;;-1.60;99.90;;;;;;4159038;28;19960;-57
2022/01/28 05:36:46;;;;;;;;;;;-1.50;99.90;;;;;;4160076;28;19940;-58
2022/01/28 05:38:47;;;;;;;;;;;-1.60;99.90;;;;;;4158172;28;20718;-57
2022/01/28 05:40:48;;;;;;;;;;;-1.60;99.90;;;;;;4159820;28;19913;-57
2022/01/28 05:42:49;;;;;;;;;;;-1.60;99.90;;;;;;4159117;28;19909;-59
2022/01/28 05:44:50;;;;;;;;;;;-1.60;99.90;;;;;;4159168;28;19913;-58
2022/01/28 05:46:52;;;;;;;;;;;-1.50;99.90;;;;;;4158001;28;19994;-66
2022/01/28 05:48:53;;;;;;;;;;;-1.50;99.90;;;;;;4159562;28;19968;-63
2022/01/28 05:50:54;;;;;;;;;;;-1.60;99.90;;;;;;4158677;28;19909;-62
2022/01/28 05:52:55;;;;;;;;;;;-1.60;99.90;;;;;;4159690;28;19924;-61
2022/01/28 05:54:56;;;;;;;;;;;-1.60;99.90;;;;;;4157324;28;19921;-61
2022/01/28 05:56:56;;;;;;;;;;;-1.60;99.90;;;;;;4139216;28;19914;-60
2022/01/28 05:58:58;;;;;;;;;;;-1.50;99.90;;;;;;4158718;28;20281;-60
2022/01/28 06:00:58;;;;;;;;;;;-1.50;99.90;;;;;;4158400;28;19917;-61
2022/01/28 06:02:59;;;;;;;;;;;-1.50;99.90;;;;;;4159521;28;19913;-62
2022/01/28 06:05:00;;;;;;;;;;;-1.50;99.90;;;;;;4158860;28;20822;-61
2022/01/28 06:07:01;;;;;;;;;;;-1.50;99.90;;;;;;4158852;28;19917;-63
2022/01/28 06:09:03;;;;;;;;;;;-1.40;99.90;;;;;;4158287;28;19925;-58
2022/01/28 06:11:04;;;;;;;;;;;-1.40;99.90;;;;;;4159633;28;19961;-62
2022/01/28 06:13:05;;;;;;;;;;;-1.40;99.90;;;;;;4157718;28;19923;-59
2022/01/28 06:15:06;;;;;;;;;;;-1.40;99.90;;;;;;4159412;28;19913;-61
2022/01/28 06:17:07;;;;;;;;;;;-1.40;99.90;;;;;;4157054;28;20446;-57
2022/01/28 06:19:10;;;;;;;;;;;-1.40;99.90;;;;;;4148033;28;19920;-63
2022/01/28 06:21:11;;;;;;;;;;;-1.40;99.90;;;;;;4124440;28;19910;-62
2022/01/28 06:23:12;;;;;;;;;;;-1.40;99.90;;;;;;4148085;28;19963;-61
2022/01/28 06:25:13;;;;;;;;;;;-1.40;99.90;;;;;;4157237;28;20228;-59
2022/01/28 06:27:14;;;;;;;;;;;-1.40;99.90;;;;;;4157753;28;20300;-62
2022/01/28 06:29:15;;;;;;;;;;;-1.40;99.90;;;;;;4158327;28;19921;-57
2022/01/28 06:31:16;;;;;;;;;;;-1.30;99.90;;;;;;4156157;28;20375;-56
2022/01/28 06:33:17;;;;;;;;;;;-1.30;99.90;;;;;;4168555;28;19928;-61
2022/01/28 06:35:18;;;;;;;;;;;-1.30;99.90;;;;;;4174355;28;19917;-60
2022/01/28 06:37:19;;;;;;;;;;;-1.30;99.90;;;;;;4165259;28;20370;-63
2022/01/28 06:39:20;;;;;;;;;;;-1.20;99.90;;;;;;4157130;28;19920;-59
2022/01/28 06:41:21;;;;;;;;;;;-1.20;99.90;;;;;;4157913;28;20551;-55
2022/01/28 06:43:22;;;;;;;;;;;-1.20;99.90;;;;;;4158039;28;19920;-55
2022/01/28 06:45:23;;;;;;;;;;;-1.10;99.90;;;;;;4158824;28;19917;-57
2022/01/28 06:47:24;;;;;;;;;;;-1.10;99.90;;;;;;4157102;28;19979;-55
2022/01/28 06:49:25;;;;;;;;;;;-1.10;99.90;;;;;;4158290;28;19921;-62
2022/01/28 06:51:25;;;;;;;;;;;-1.00;99.90;;;;;;4157877;28;19935;-60
2022/01/28 06:53:26;;;;;;;;;;;-1.00;99.90;;;;;;4158995;28;20308;-59
2022/01/28 06:55:27;;;;;;;;;;;-0.90;99.90;;;;;;4140737;28;19913;-62
2022/01/28 06:57:28;;;;;;;;;;;-0.90;99.90;;;;;;4156864;28;19913;-60
2022/01/28 06:59:29;;;;;;;;;;;-0.90;99.90;;;;;;4158477;28;19905;-63
2022/01/28 07:01:30;;;;;;;;;;;-0.80;99.90;;;;;;4157436;28;19920;-54
2022/01/28 07:03:31;;;;;;;;;;;-0.80;99.90;;;;;;4158387;28;19913;-56
2022/01/28 07:05:32;;;;;;;;;;;-0.80;99.90;;;;;;4156987;28;19935;-58
2022/01/28 07:07:34;;;;;;;;;;;-0.80;99.90;;;;;;4158167;28;19917;-53
2022/01/28 07:09:35;;;;;;;;;;;-0.70;99.90;;;;;;4156420;28;19921;-58
2022/01/28 07:11:36;;;;;;;;;;;-0.70;99.90;;;;;;4158536;28;19924;-56
2022/01/28 07:13:37;;;;;;;;;;;-0.60;99.90;;;;;;4156088;28;19921;-57
2022/01/28 07:15:38;;;;;;;;;;;-0.60;99.90;;;;;;4159513;28;19964;-52
2022/01/28 07:17:39;;;;;;;;;;;-0.60;99.90;;;;;;4154597;28;19917;-54
2022/01/28 07:19:40;;;;;;;;;;;-0.50;99.90;;;;;;4155534;28;20310;-61
2022/01/28 07:21:40;;;;;;;;;;;-0.50;99.90;;;;;;4153733;28;19921;-53
2022/01/28 07:23:41;;;;;;;;;;;-0.40;99.90;;;;;;4155563;28;19924;-61
2022/01/28 07:25:42;;;;;;;;;;;-0.40;99.90;;;;;;4156760;28;19916;-55
2022/01/28 07:27:43;;;;;;;;;;;-0.40;99.90;;;;;;4152548;28;19917;-60
2022/01/28 07:29:46;;;;;;;;;;;-0.50;99.90;;;;;;4151693;28;19947;-62
2022/01/28 07:31:47;;;;;;;;;;;-0.50;99.90;;;;;;4150891;28;19924;-60
2022/01/28 07:33:48;;;;;;;;;;;-0.60;99.90;;;;;;4153080;28;19921;-55
2022/01/28 07:35:49;;;;;;;;;;;-0.70;99.90;;;;;;4159776;28;20548;-59
2022/01/28 07:37:50;;;;;;;;;;;-0.80;99.90;;;;;;4157119;28;19913;-54
2022/01/28 07:39:51;;;;;;;;;;;-0.80;99.90;;;;;;4155102;28;20491;-59
2022/01/28 07:41:52;;;;;;;;;;;-0.80;99.90;;;;;;4154400;28;19917;-57
2022/01/28 07:43:53;;;;;;;;;;;-0.80;99.90;;;;;;4151523;28;19920;-54
2022/01/28 07:45:54;;;;;;;;;;;-0.80;99.90;;;;;;4153222;28;20369;-55
2022/01/28 07:47:55;;;;;;;;;;;-0.80;99.90;;;;;;4152482;28;19925;-61
2022/01/28 07:49:56;;;;;;;;;;;-0.90;99.90;;;;;;4155528;28;19935;-60
2022/01/28 07:51:57;;;;;;;;;;;-0.90;99.90;;;;;;4155301;28;19921;-56
2022/01/28 07:53:57;;;;;;;;;;;-0.90;99.90;;;;;;4152998;28;19956;-61
2022/01/28 07:55:58;;;;;;;;;;;-0.90;99.90;;;;;;4153117;28;19971;-59
2022/01/28 07:57:59;;;;;;;;;;;-0.90;99.90;;;;;;4152303;28;20344;-64
2022/01/28 08:00:00;;;;;;;;;;;-0.80;99.90;;;;;;4152875;28;19924;-62
2022/01/28 08:02:01;;;;;;;;;;;-0.80;99.90;;;;;;4151614;28;19960;-65
2022/01/28 08:04:02;;;;;;;;;;;-0.90;99.90;;;;;;4153683;28;19964;-62
2022/01/28 08:06:03;;;;;;;;;;;-0.80;99.90;;;;;;4155326;28;19928;-66
2022/01/28 08:08:07;;;;;;;;;;;-0.80;99.90;;;;;;4154324;28;19939;-59
2022/01/28 08:10:08;;;;;;;;;;;-0.80;99.90;;;;;;4150854;28;20443;-59
2022/01/28 08:12:09;;;;;;;;;;;-0.80;99.90;;;;;;4153471;28;19995;-60
2022/01/28 08:14:10;;;;;;;;;;;-0.80;99.90;;;;;;4133652;28;19926;-64
2022/01/28 08:16:11;;;;;;;;;;;-0.80;99.90;;;;;;4153072;28;19988;-55
2022/01/28 08:18:12;;;;;;;;;;;-0.80;99.90;;;;;;4133471;28;19969;-66
2022/01/28 08:20:13;;;;;;;;;;;-0.80;99.90;;;;;;4155258;28;19917;-57
2022/01/28 08:22:14;;;;;;;;;;;-0.70;99.90;;;;;;4155264;28;19967;-63
2022/01/28 08:24:15;;;;;;;;;;;-0.70;99.90;;;;;;4167256;28;20300;-61
2022/01/28 08:26:18;;;;;;;;;;;-0.70;99.90;;;;;;4156710;28;19999;-60
2022/01/28 08:28:19;;;;;;;;;;;-0.60;99.90;;;;;;4139687;28;20012;-57
2022/01/28 08:30:22;;;;;;;;;;;-0.50;99.90;;;;;;4156280;28;19991;-61
2022/01/28 08:32:23;;;;;;;;;;;-0.50;99.90;;;;;;4156821;28;19971;-59
2022/01/28 08:34:23;;;;;;;;;;;-0.50;99.90;;;;;;4157470;28;19916;-63
2022/01/28 08:36:24;;;;;;;;;;;-0.40;99.90;;;;;;4156286;28;19947;-62
2022/01/28 08:38:27;;;;;;;;;;;-0.30;99.90;;;;;;4156899;28;19940;-55
2022/01/28 08:40:29;;;;;;;;;;;-0.30;99.90;;;;;;4156479;28;19962;-68
2022/01/28 08:42:30;;;;;;;;;;;-0.20;99.90;;;;;;4158051;28;19917;-58
2022/01/28 08:44:31;;;;;;;;;;;-0.10;99.90;;;;;;4156569;28;19913;-60
2022/01/28 08:46:32;;;;;;;;;;;-0.10;99.90;;;;;;4157774;28;20349;-57
2022/01/28 08:48:33;;;;;;;;;;;0.00;99.90;;;;;;4155912;28;19913;-58
2022/01/28 08:50:34;;;;;;;;;;;0.10;99.90;;;;;;4157893;28;20266;-59
2022/01/28 08:52:35;;;;;;;;;;;0.10;99.90;;;;;;4156086;28;19913;-58
2022/01/28 08:54:36;;;;;;;;;;;0.10;99.90;;;;;;4156803;28;19936;-59
2022/01/28 08:56:37;;;;;;;;;;;0.20;99.90;;;;;;4156930;28;19951;-54
2022/01/28 08:58:38;;;;;;;;;;;0.20;99.90;;;;;;4156689;28;19944;-56
2022/01/28 09:00:39;;;;;;;;;;;0.30;99.90;;;;;;4157088;28;19919;-58
2022/01/28 09:02:41;;;;;;;;;;;0.40;99.90;;;;;;4156707;28;20324;-59
2022/01/28 09:04:42;;;;;;;;;;;0.40;99.90;;;;;;4157132;28;19913;-59
2022/01/28 09:06:43;;;;;;;;;;;0.40;99.90;;;;;;4156615;28;20020;-58
2022/01/28 09:08:44;;;;;;;;;;;0.60;99.90;;;;;;4156153;28;19980;-65
2022/01/28 09:10:56;;;;;;;;;;;0.60;99.90;;;;;;4155379;28;21557;-55
2022/01/28 09:15:04;;;;;;;;;;;0.70;99.90;;;;;;4155788;28;19917;-56
2022/01/28 09:17:06;;;;;;;;;;;0.90;99.90;;;;;;4157492;28;20412;-58
2022/01/28 09:19:07;;;;;;;;;;;0.90;99.90;;;;;;4155650;28;19920;-55
2022/01/28 09:21:07;;;;;;;;;;;1.10;99.90;;;;;;4158443;28;19914;-60
2022/01/28 09:23:09;;;;;;;;;;;1.10;99.90;;;;;;4158399;28;19943;-55
2022/01/28 09:25:10;;;;;;;;;;;1.20;99.90;;;;;;4160168;28;19917;-54
2022/01/28 09:27:10;;;;;;;;;;;1.30;99.90;;;;;;4159020;28;19913;-64
2022/01/28 09:29:11;;;;;;;;;;;1.30;99.90;;;;;;4159241;28;20328;-61
2022/01/28 09:31:12;;;;;;;;;;;1.40;99.90;;;;;;4158533;28;20285;-56
2022/01/28 09:33:13;;;;;;;;;;;1.50;99.90;;;;;;4159020;28;19913;-61
2022/01/28 09:35:15;;;;;;;;;;;1.60;99.90;;;;;;4158322;28;19913;-52
2022/01/28 09:37:16;;;;;;;;;;;1.60;99.90;;;;;;4158498;28;19916;-58
2022/01/28 09:39:19;;;;;;;;;;;1.70;99.90;;;;;;4159021;28;19924;-56
2022/01/28 09:41:22;;;;;;;;;;;1.80;99.90;;;;;;4158185;28;19967;-57
2022/01/28 09:43:26;;;;;;;;;;;1.80;99.90;;;;;;4159484;28;19967;-60
2022/01/28 09:45:27;;;;;;;;;;;1.90;99.90;;;;;;4158247;28;20365;-58
2022/01/28 09:47:29;;;;;;;;;;;2.00;99.90;;;;;;4159022;28;19979;-59
2022/01/28 09:49:31;;;;;;;;;;;2.10;99.90;;;;;;4157870;28;20368;-52
2022/01/28 09:51:32;;;;;;;;;;;2.10;99.90;;;;;;4159565;28;19913;-62
2022/01/28 09:53:34;;;;;;;;;;;2.20;99.90;;;;;;4158500;28;19913;-69
2022/01/28 09:55:34;;;;;;;;;;;2.20;99.90;;;;;;4158836;28;19917;-60
2022/01/28 09:57:35;;;;;;;;;;;2.30;99.90;;;;;;4158267;28;19962;-59
2022/01/28 09:59:37;;;;;;;;;;;2.30;99.90;;;;;;4159040;28;19917;-63
2022/01/28 10:01:48;;;;;;;;;;;2.40;99.90;;;;;;4156994;28;20416;-65
2022/01/28 10:04:06;;;;;;;;;;;2.50;99.90;;;;;;4158946;28;19913;-65
2022/01/28 10:06:06;;;;;;;;;;;2.60;99.90;;;;;;4157801;28;19921;-66
2022/01/28 10:08:09;;;;;;;;;;;2.70;99.90;;;;;;4159576;28;19925;-65
2022/01/28 10:10:10;;;;;;;;;;;2.80;99.90;;;;;;4158303;28;19921;-59
2022/01/28 10:12:20;;;;;;;;;;;2.80;99.90;;;;;;4158183;28;19963;-63
2022/01/28 10:14:24;;;;;;;;;;;2.90;99.90;;;;;;4156767;28;20720;-58
2022/01/28 10:16:27;;;;;;;;;;;2.90;99.90;;;;;;4157264;28;19960;-61
2022/01/28 10:18:43;;;;;;;;;;;3.00;99.90;;;;;;4136193;28;19914;-63
2022/01/28 10:20:44;;;;;;;;;;;3.00;99.90;;;;;;4158154;28;19971;-62
2022/01/28 10:22:49;;;;;;;;;;;3.00;99.90;;;;;;4158214;28;19957;-60
2022/01/28 10:24:50;;;;;;;;;;;3.10;99.90;;;;;;4156769;28;19925;-63
2022/01/28 10:27:06;;;;;;;;;;;3.20;99.90;;;;;;4158523;28;19928;-57
2022/01/28 10:29:09;;;;;;;;;;;3.10;99.90;;;;;;4157590;28;20387;-61
2022/01/28 10:31:09;;;;;;;;;;;3.20;99.90;;;;;;4158612;28;19920;-64
2022/01/28 10:33:11;;;;;;;;;;;3.20;99.90;;;;;;4157954;28;19913;-62
2022/01/28 10:35:29;;;;;;;;;;;3.20;99.90;;;;;;4158745;28;19994;-65
2022/01/28 10:37:32;;;;;;;;;;;3.20;99.90;;;;;;4156787;28;19947;-58
2022/01/28 10:39:39;;;;;;;;;;;3.30;99.90;;;;;;4159120;28;19959;-57
2022/01/28 10:41:56;;;;;;;;;;;3.30;99.90;;;;;;4156569;28;19917;-65
2022/01/28 10:43:58;;;;;;;;;;;3.30;99.90;;;;;;4157512;28;19917;-58
2022/01/28 10:46:05;;;;;;;;;;;3.40;99.90;;;;;;4156795;28;20351;-61
2022/01/28 10:48:06;;;;;;;;;;;3.40;99.90;;;;;;4159362;28;19955;-57
2022/01/28 10:50:16;;;;;;;;;;;3.40;99.90;;;;;;4139547;28;20331;-57
2022/01/28 10:52:17;;;;;;;;;;;3.40;99.90;;;;;;4158963;28;20324;-60
2022/01/28 10:54:20;;;;;;;;;;;3.50;99.90;;;;;;4157478;28;19956;-60
2022/01/28 10:56:21;;;;;;;;;;;3.50;99.90;;;;;;4158390;28;20364;-62
2022/01/28 10:58:23;;;;;;;;;;;3.50;99.90;;;;;;4156697;28;19960;-58
2022/01/28 11:00:27;;;;;;;;;;;3.60;99.90;;;;;;4158055;28;20302;-57
2022/01/28 11:02:29;;;;;;;;;;;3.70;99.90;;;;;;4152092;28;19913;-52
2022/01/28 11:04:30;;;;;;;;;;;3.80;99.90;;;;;;4158154;28;19913;-58
2022/01/28 11:06:31;;;;;;;;;;;3.80;99.90;;;;;;4157687;28;19913;-58
2022/01/28 11:08:34;;;;;;;;;;;3.90;99.90;;;;;;4139917;28;19917;-60
2022/01/28 11:10:35;;;;;;;;;;;4.00;99.90;;;;;;4157474;28;19925;-57
2022/01/28 11:12:37;;;;;;;;;;;4.10;99.90;;;;;;4157292;28;19920;-55
2022/01/28 11:14:37;;;;;;;;;;;4.10;99.90;;;;;;4157324;28;19917;-52
2022/01/28 11:16:39;;;;;;;;;;;4.10;99.90;;;;;;4138383;28;19957;-54
2022/01/28 11:18:40;;;;;;;;;;;4.20;99.90;;;;;;4156806;28;19917;-52
2022/01/28 11:20:45;;;;;;;;;;;4.10;99.90;;;;;;4155712;28;19913;-56
2022/01/28 11:22:54;;;;;;;;;;;4.10;99.90;;;;;;4157580;28;19951;-61
2022/01/28 11:25:01;;;;;;;;;;;4.00;99.90;;;;;;4156560;28;20477;-60
2022/01/28 11:27:17;;;;;;;;;;;4.00;99.90;;;;;;4154927;28;19959;-54
2022/01/28 11:29:19;;;;;;;;;;;4.00;99.90;;;;;;4172571;28;20347;-61
2022/01/28 11:31:40;;;;;;;;;;;4.00;99.90;;;;;;4174731;28;20390;-58
2022/01/28 11:33:48;;;;;;;;;;;4.10;99.90;;;;;;4164498;28;19983;-55
2022/01/28 11:35:49;;;;;;;;;;;4.20;99.90;;;;;;4157542;28;19916;-65
2022/01/28 11:37:51;;;;;;;;;;;4.30;99.90;;;;;;4156178;28;19913;-62
2022/01/28 11:40:04;;;;;;;;;;;4.40;99.90;;;;;;4157224;28;20391;-56
2022/01/28 11:42:17;;;;;;;;;;;4.50;99.90;;;;;;4156461;28;19917;-57
2022/01/28 11:44:38;;;;;;;;;;;4.50;99.90;;;;;;4157291;28;19917;-59
2022/01/28 11:46:43;;;;;;;;;;;4.40;99.90;;;;;;4155679;28;19916;-54
2022/01/28 11:48:54;;;;;;;;;;;4.40;99.90;;;;;;4157423;28;19920;-58
2022/01/28 11:51:02;;;;;;;;;;;4.40;99.90;;;;;;4156009;28;20403;-56
2022/01/28 11:53:19;;;;;;;;;;;4.40;99.90;;;;;;4157972;28;19963;-59
2022/01/28 11:55:20;;;;;;;;;;;4.30;99.90;;;;;;4155725;28;21315;-60
2022/01/28 11:57:24;;;;;;;;;;;4.30;99.90;;;;;;4156778;28;19979;-63
2022/01/28 11:59:25;;;;;;;;;;;4.30;99.90;;;;;;4156104;28;19917;-61
2022/01/28 12:01:38;;;;;;;;;;;4.30;99.90;;;;;;4158041;28;20414;-57
2022/01/28 12:03:39;;;;;;;;;;;4.30;99.90;;;;;;4154528;28;19913;-55
2022/01/28 12:05:40;;;;;;;;;;;4.40;99.90;;;;;;4139772;28;19956;-61
2022/01/28 12:07:41;;;;;;;;;;;4.40;99.90;;;;;;4156589;28;20285;-59
2022/01/28 12:09:44;;;;;;;;;;;4.40;99.90;;;;;;4157187;28;19913;-60
2022/01/28 12:11:45;;;;;;;;;;;4.40;99.90;;;;;;4138754;28;20756;-62
2022/01/28 12:13:53;;;;;;;;;;;4.50;99.90;;;;;;4157053;28;19909;-59
2022/01/28 12:16:00;;;;;;;;;;;4.50;99.90;;;;;;4145205;28;19932;-60
2022/01/28 12:18:10;;;;;;;;;;;4.50;99.90;;;;;;4154667;28;19909;-65
2022/01/28 12:20:15;;;;;;;;;;;4.60;99.90;;;;;;4139933;28;20311;-59
2022/01/28 12:22:17;;;;;;;;;;;4.70;99.90;;;;;;4141066;28;19924;-57
2022/01/28 12:24:18;;;;;;;;;;;4.70;99.90;;;;;;4139938;28;19913;-59
2022/01/28 12:26:19;;;;;;;;;;;4.80;99.90;;;;;;4140322;28;19914;-63
2022/01/28 12:28:24;;;;;;;;;;;4.80;99.90;;;;;;4138246;28;19936;-58
2022/01/28 12:30:35;;;;;;;;;;;4.80;99.90;;;;;;4143279;28;20382;-66
2022/01/28 12:32:36;;;;;;;;;;;4.90;99.90;;;;;;4155626;28;19917;-61
2022/01/28 12:34:44;;;;;;;;;;;4.90;99.90;;;;;;4156264;28;19913;-70
2022/01/28 12:36:46;;;;;;;;;;;5.00;99.90;;;;;;4155794;28;19963;-62
2022/01/28 12:39:32;;;;;;;;;;;5.00;99.90;;;;;;4155933;28;20408;-61
2022/01/28 12:41:16;;;;;;;;;;;4.90;99.90;;;;;;4153750;28;19979;-68
2022/01/28 12:43:19;;;;;;;;;;;4.90;99.90;;;;;;4156268;28;19964;-65
2022/01/28 12:45:20;;;;;;;;;;;4.90;99.90;;;;;;4156891;28;19933;-63
2022/01/28 12:47:21;;;;;;;;;;;4.90;99.90;;;;;;4156463;28;20626;-63
2022/01/28 12:49:26;;;;;;;;;;;4.80;99.90;;;;;;4157717;28;19951;-66
2022/01/28 12:51:27;;;;;;;;;;;4.70;99.90;;;;;;4155229;28;19925;-60
2022/01/28 12:53:34;;;;;;;;;;;4.70;99.90;;;;;;4157000;28;19913;-66
2022/01/28 12:55:35;;;;;;;;;;;4.70;99.90;;;;;;4157037;28;19921;-61
2022/01/28 12:57:41;;;;;;;;;;;4.70;99.90;;;;;;4160136;28;20349;-59
2022/01/28 12:59:45;;;;;;;;;;;4.70;99.90;;;;;;4159322;28;19913;-59
2022/01/28 13:01:52;;;;;;;;;;;4.70;99.90;;;;;;4159353;28;19981;-58
2022/01/28 13:04:03;;;;;;;;;;;4.70;99.90;;;;;;4158833;28;20365;-56
2022/01/28 13:08:40;;;;;;;;;;;4.60;99.90;;;;;;4141562;28;19983;-56
2022/01/28 13:10:41;;;;;;;;;;;4.60;99.90;;;;;;4142176;28;19925;-56
2022/01/28 13:12:42;;;;;;;;;;;4.60;99.90;;;;;;4158560;28;20380;-58
2022/01/28 13:14:43;;;;;;;;;;;4.50;99.90;;;;;;4160654;28;19988;-56
2022/01/28 13:16:45;;;;;;;;;;;4.50;99.90;;;;;;4158862;28;19913;-61
2022/01/28 13:18:56;;;;;;;;;;;4.50;99.90;;;;;;4152847;28;19910;-57
2022/01/28 13:20:57;;;;;;;;;;;4.50;99.90;;;;;;4157846;28;19959;-58
2022/01/28 13:22:58;;;;;;;;;;;4.60;99.90;;;;;;4163117;28;19917;-55
2022/01/28 13:24:59;;;;;;;;;;;4.60;99.90;;;;;;4174959;28;19909;-58